createdAt,value
2017-12-16T00:00:46.369Z,1.39
2017-12-16T00:01:46.085Z,1.3
2017-12-16T00:02:46.333Z,1.39
2017-12-16T00:03:46.050Z,1.29
2017-12-16T00:04:46.324Z,1.24
2017-12-16T00:05:46.012Z,1.3
2017-12-16T00:06:50.391Z,1.28
2017-12-16T00:07:46.308Z,1.33
2017-12-16T00:08:45.974Z,1.3
2017-12-16T00:09:45.954Z,1.33
2017-12-16T00:10:46.474Z,1.33
2017-12-16T00:11:45.893Z,1.32
2017-12-16T00:12:45.879Z,1.3
2017-12-16T00:13:46.143Z,1.29
2017-12-16T00:14:45.856Z,1.35
2017-12-16T00:15:46.205Z,1.22
2017-12-16T00:16:46.081Z,1.36
2017-12-16T00:17:46.092Z,1.3
2017-12-16T00:18:46.063Z,1.28
2017-12-16T00:19:45.768Z,1.29
2017-12-16T00:20:45.779Z,1.3
2017-12-16T00:21:46.307Z,1.33
2017-12-16T00:22:46.011Z,1.39
2017-12-16T00:23:45.991Z,1.24
2017-12-16T00:24:45.695Z,1.4
2017-12-16T00:25:45.929Z,1.35
2017-12-16T00:26:45.671Z,1.36
2017-12-16T00:27:45.617Z,1.33
2017-12-16T00:28:45.623Z,1.33
2017-12-16T00:29:46.162Z,1.3
2017-12-16T00:30:46.169Z,1.32
2017-12-16T00:31:45.833Z,1.38
2017-12-16T00:32:45.547Z,1.35
2017-12-16T00:33:45.515Z,1.29
2017-12-16T00:34:45.497Z,1.21
2017-12-16T00:35:46.072Z,1.21
2017-12-16T00:36:45.463Z,1.32
2017-12-16T00:37:45.725Z,1.22
2017-12-16T00:38:45.672Z,1.28
2017-12-16T00:39:45.411Z,1.35
2017-12-16T00:40:45.397Z,1.32
2017-12-16T00:41:45.648Z,1.24
2017-12-16T00:42:45.372Z,1.33
2017-12-16T00:43:45.898Z,1.29
2017-12-16T00:44:45.596Z,1.33
2017-12-16T00:45:46.062Z,1.3
2017-12-16T00:46:45.307Z,1.26
2017-12-16T00:47:45.297Z,1.28
2017-12-16T00:48:45.530Z,1.28
2017-12-16T00:49:45.239Z,1.24
2017-12-16T00:50:45.506Z,1.22
2017-12-16T00:51:45.474Z,1.22
2017-12-16T00:52:45.183Z,1.21
2017-12-16T00:53:45.167Z,1.29
2017-12-16T00:54:45.159Z,1.24
2017-12-16T00:55:45.404Z,1.28
2017-12-16T00:56:45.388Z,1.32
2017-12-16T00:57:45.381Z,1.29
2017-12-16T00:58:45.360Z,1.24
2017-12-16T00:59:45.609Z,1.29
2017-12-16T01:00:45.047Z,1.32
2017-12-16T01:01:45.028Z,1.2
2017-12-16T01:02:45.345Z,1.18
2017-12-16T01:03:45.276Z,1.29
2017-12-16T01:04:45.254Z,1.32
2017-12-16T01:05:44.959Z,1.33
2017-12-16T01:06:45.210Z,1.36
2017-12-16T01:07:44.923Z,1.26
2017-12-16T01:08:45.182Z,1.17
2017-12-16T01:09:45.449Z,1.24
2017-12-16T01:10:45.148Z,1.2
2017-12-16T01:11:44.855Z,1.15
2017-12-16T01:12:44.834Z,1.15
2017-12-16T01:13:44.819Z,1.36
2017-12-16T01:14:45.345Z,1.22
2017-12-16T01:15:45.328Z,1.3
2017-12-16T01:16:45.320Z,1.33
2017-12-16T01:17:45.292Z,1.28
2017-12-16T01:18:45.006Z,1.26
2017-12-16T01:19:44.715Z,1.29
2017-12-16T01:20:44.973Z,1.3
2017-12-16T01:21:44.691Z,1.33
2017-12-16T01:22:44.661Z,1.29
2017-12-16T01:23:44.645Z,1.32
2017-12-16T01:24:44.920Z,1.29
2017-12-16T01:25:44.880Z,1.29
2017-12-16T01:26:44.594Z,1.29
2017-12-16T01:27:44.577Z,1.3
2017-12-16T01:28:44.836Z,1.3
2017-12-16T01:29:44.816Z,1.3
2017-12-16T01:30:44.528Z,1.32
2017-12-16T01:31:44.798Z,1.32
2017-12-16T01:32:44.759Z,1.2
2017-12-16T01:33:44.476Z,1.3
2017-12-16T01:34:44.477Z,1.18
2017-12-16T01:35:44.719Z,1.21
2017-12-16T01:36:44.420Z,1.28
2017-12-16T01:37:44.403Z,1.28
2017-12-16T01:38:44.934Z,1.29
2017-12-16T01:39:44.641Z,1.3
2017-12-16T01:40:44.620Z,1.38
2017-12-16T01:41:44.620Z,1.3
2017-12-16T01:42:44.313Z,1.3
2017-12-16T01:43:44.318Z,1.24
2017-12-16T01:44:44.289Z,1.15
2017-12-16T01:45:44.272Z,1.32
2017-12-16T01:46:44.252Z,1.32
2017-12-16T01:47:44.251Z,1.32
2017-12-16T01:48:44.208Z,1.3
2017-12-16T01:49:44.482Z,1.26
2017-12-16T01:50:44.469Z,1.29
2017-12-16T01:51:44.429Z,1.35
2017-12-16T01:52:44.415Z,1.29
2017-12-16T01:53:44.397Z,1.33
2017-12-16T01:54:44.108Z,1.33
2017-12-16T01:55:44.635Z,1.26
2017-12-16T01:56:44.074Z,1.29
2017-12-16T01:57:44.327Z,1.33
2017-12-16T01:58:44.037Z,1.26
2017-12-16T01:59:44.019Z,1.32
2017-12-16T02:00:44.281Z,1.24
2017-12-16T02:01:43.987Z,1.3
2017-12-16T02:02:44.517Z,1.18
2017-12-16T02:03:43.950Z,1.24
2017-12-16T02:04:44.204Z,1.22
2017-12-16T02:05:43.915Z,1.32
2017-12-16T02:06:44.442Z,1.28
2017-12-16T02:07:43.883Z,1.4
2017-12-16T02:08:44.132Z,1.32
2017-12-16T02:09:43.846Z,1.33
2017-12-16T02:10:43.826Z,1.32
2017-12-16T02:11:44.382Z,1.32
2017-12-16T02:12:44.092Z,1.38
2017-12-16T02:13:43.783Z,1.29
2017-12-16T02:14:44.030Z,1.28
2017-12-16T02:15:43.757Z,1.29
2017-12-16T02:16:44.026Z,1.36
2017-12-16T02:17:43.983Z,1.38
2017-12-16T02:18:43.688Z,1.26
2017-12-16T02:19:43.674Z,1.24
2017-12-16T02:20:43.929Z,1.3
2017-12-16T02:21:43.910Z,1.32
2017-12-16T02:22:43.904Z,1.35
2017-12-16T02:23:44.156Z,1.32
2017-12-16T02:24:43.857Z,1.33
2017-12-16T02:25:43.571Z,1.33
2017-12-16T02:26:43.569Z,1.29
2017-12-16T02:27:43.806Z,1.36
2017-12-16T02:28:43.785Z,1.21
2017-12-16T02:29:43.500Z,1.36
2017-12-16T02:30:43.801Z,1.24
2017-12-16T02:31:43.759Z,1.3
2017-12-16T02:32:43.718Z,1.3
2017-12-16T02:33:43.708Z,1.24
2017-12-16T02:34:43.687Z,1.22
2017-12-16T02:35:43.399Z,1.28
2017-12-16T02:36:43.659Z,1.29
2017-12-16T02:37:43.359Z,1.15
2017-12-16T02:38:43.637Z,1.35
2017-12-16T02:39:43.868Z,1.3
2017-12-16T02:40:43.310Z,1.17
2017-12-16T02:41:43.338Z,1.33
2017-12-16T02:42:43.554Z,1.24
2017-12-16T02:43:43.259Z,1.35
2017-12-16T02:44:43.508Z,1.29
2017-12-16T02:45:43.493Z,1.3
2017-12-16T02:46:43.207Z,1.29
2017-12-16T02:47:43.457Z,1.29
2017-12-16T02:48:43.168Z,1.26
2017-12-16T02:49:43.422Z,1.28
2017-12-16T02:50:43.406Z,1.26
2017-12-16T02:51:43.400Z,1.24
2017-12-16T02:52:43.373Z,1.28
2017-12-16T02:53:43.079Z,1.32
2017-12-16T02:54:43.339Z,1.35
2017-12-16T02:55:43.053Z,1.28
2017-12-16T02:56:43.579Z,1.33
2017-12-16T02:57:43.009Z,1.26
2017-12-16T02:58:43.001Z,1.3
2017-12-16T02:59:43.252Z,1.18
2017-12-16T03:00:42.980Z,1.18
2017-12-16T03:01:43.221Z,1.24
2017-12-16T03:02:43.193Z,1.26
2017-12-16T03:03:42.912Z,1.24
2017-12-16T03:04:43.163Z,1.24
2017-12-16T03:05:43.145Z,1.32
2017-12-16T03:06:43.126Z,1.29
2017-12-16T03:07:42.838Z,1.15
2017-12-16T03:08:43.097Z,1.3
2017-12-16T03:09:42.802Z,1.38
2017-12-16T03:10:42.785Z,1.17
2017-12-16T03:11:43.318Z,1.4
2017-12-16T03:12:43.026Z,1.3
2017-12-16T03:13:43.013Z,1.33
2017-12-16T03:14:43.048Z,1.21
2017-12-16T03:15:42.696Z,1.26
2017-12-16T03:16:42.954Z,1.3
2017-12-16T03:17:42.949Z,1.28
2017-12-16T03:18:42.916Z,1.32
2017-12-16T03:19:43.172Z,1.33
2017-12-16T03:20:42.615Z,1.3
2017-12-16T03:21:43.166Z,1.36
2017-12-16T03:22:42.580Z,1.3
2017-12-16T03:23:42.844Z,1.3
2017-12-16T03:24:43.084Z,1.35
2017-12-16T03:25:42.842Z,1.32
2017-12-16T03:26:43.047Z,1.28
2017-12-16T03:27:43.041Z,1.32
2017-12-16T03:28:42.470Z,1.22
2017-12-16T03:29:42.726Z,1.32
2017-12-16T03:30:42.439Z,1.24
2017-12-16T03:31:42.692Z,1.29
2017-12-16T03:32:42.425Z,1.24
2017-12-16T03:33:42.654Z,1.24
2017-12-16T03:34:42.636Z,1.22
2017-12-16T03:35:42.349Z,1.24
2017-12-16T03:36:42.874Z,1.18
2017-12-16T03:37:42.586Z,1.22
2017-12-16T03:38:42.299Z,1.17
2017-12-16T03:39:42.826Z,1.12
2017-12-16T03:40:42.261Z,1.2
2017-12-16T03:41:42.258Z,1.14
2017-12-16T03:42:42.500Z,1.17
2017-12-16T03:43:42.220Z,1.14
2017-12-16T03:44:42.740Z,1.08
2017-12-16T03:45:42.449Z,1.1
2017-12-16T03:46:42.157Z,1.1
2017-12-16T03:47:42.190Z,1.07
2017-12-16T03:48:42.121Z,1.07
2017-12-16T03:49:42.107Z,1.04
2017-12-16T03:50:42.089Z,1.04
2017-12-16T03:51:42.630Z,1.1
2017-12-16T03:52:42.065Z,1.1
2017-12-16T03:53:42.583Z,1.1
2017-12-16T03:54:42.304Z,1.1
2017-12-16T03:55:41.995Z,1.03
2017-12-16T03:56:42.256Z,1.11
2017-12-16T03:57:42.529Z,1.07
2017-12-16T03:58:41.995Z,1.07
2017-12-16T03:59:42.199Z,1.08
2017-12-16T04:00:41.910Z,1.08
2017-12-16T04:01:41.891Z,1.11
2017-12-16T04:02:42.218Z,1.1
2017-12-16T04:03:42.416Z,1.14
2017-12-16T04:04:41.837Z,1.08
2017-12-16T04:05:42.110Z,1.14
2017-12-16T04:06:41.804Z,1.18
2017-12-16T04:07:42.056Z,1.17
2017-12-16T04:08:42.043Z,1.14
2017-12-16T04:09:42.072Z,1.12
2017-12-16T04:10:41.735Z,1.12
2017-12-16T04:11:41.990Z,1.07
2017-12-16T04:12:41.968Z,1.11
2017-12-16T04:13:41.681Z,1.11
2017-12-16T04:14:41.663Z,1.15
2017-12-16T04:15:42.199Z,1.11
2017-12-16T04:16:41.629Z,1.12
2017-12-16T04:17:41.883Z,1.04
2017-12-16T04:18:41.611Z,1.1
2017-12-16T04:19:41.909Z,1.08
2017-12-16T04:20:41.881Z,1.04
2017-12-16T04:21:41.538Z,1.08
2017-12-16T04:22:41.522Z,0.99
2017-12-16T04:23:41.508Z,0.97
2017-12-16T04:24:41.758Z,1.04
2017-12-16T04:25:41.759Z,1.14
2017-12-16T04:26:41.487Z,1.04
2017-12-16T04:27:41.436Z,1.15
2017-12-16T04:28:41.419Z,1.08
2017-12-16T04:29:41.402Z,1.1
2017-12-16T04:30:41.658Z,1.17
2017-12-16T04:31:41.366Z,1.1
2017-12-16T04:32:41.347Z,1.15
2017-12-16T04:33:41.330Z,1.18
2017-12-16T04:34:41.587Z,1.1
2017-12-16T04:35:41.575Z,1.07
2017-12-16T04:36:41.544Z,1.03
2017-12-16T04:37:41.257Z,1.07
2017-12-16T04:38:41.787Z,1.1
2017-12-16T04:39:41.225Z,1.08
2017-12-16T04:40:41.203Z,1.07
2017-12-16T04:41:41.188Z,1.1
2017-12-16T04:42:41.170Z,1.1
2017-12-16T04:43:41.714Z,1.15
2017-12-16T04:44:41.406Z,1.12
2017-12-16T04:45:41.119Z,1.12
2017-12-16T04:46:41.102Z,1.08
2017-12-16T04:47:41.083Z,1.14
2017-12-16T04:48:41.073Z,1.14
2017-12-16T04:49:41.323Z,1.14
2017-12-16T04:50:41.320Z,1.12
2017-12-16T04:51:41.281Z,1.15
2017-12-16T04:52:41.539Z,1.02
2017-12-16T04:53:40.976Z,1.14
2017-12-16T04:54:40.962Z,1.15
2017-12-16T04:55:40.942Z,1.1
2017-12-16T04:56:40.926Z,1.08
2017-12-16T04:57:40.908Z,1.12
2017-12-16T04:58:41.162Z,1.17
2017-12-16T04:59:41.148Z,1.11
2017-12-16T05:00:41.127Z,1.12
2017-12-16T05:01:41.118Z,1.2
2017-12-16T05:02:41.114Z,1.17
2017-12-16T05:03:41.076Z,1.21
2017-12-16T05:04:41.396Z,1.15
2017-12-16T05:05:41.040Z,1.18
2017-12-16T05:06:40.771Z,1.15
2017-12-16T05:07:40.737Z,1.2
2017-12-16T05:08:40.988Z,1.21
2017-12-16T05:09:40.968Z,1.2
2017-12-16T05:10:40.969Z,1.21
2017-12-16T05:11:40.664Z,1.21
2017-12-16T05:12:40.937Z,1.18
2017-12-16T05:13:40.626Z,1.12
2017-12-16T05:14:40.889Z,1.21
2017-12-16T05:15:40.594Z,1.18
2017-12-16T05:16:40.847Z,1.24
2017-12-16T05:17:40.560Z,1.22
2017-12-16T05:18:40.538Z,1.15
2017-12-16T05:19:40.521Z,1.17
2017-12-16T05:20:40.829Z,1.18
2017-12-16T05:21:40.494Z,1.2
2017-12-16T05:22:40.742Z,1.15
2017-12-16T05:23:40.729Z,1.18
2017-12-16T05:24:40.446Z,1.18
2017-12-16T05:25:40.441Z,1.24
2017-12-16T05:26:40.399Z,1.21
2017-12-16T05:27:40.664Z,1.24
2017-12-16T05:28:40.364Z,1.18
2017-12-16T05:29:40.620Z,1.14
2017-12-16T05:30:40.600Z,1.24
2017-12-16T05:31:40.592Z,1.2
2017-12-16T05:32:40.566Z,1.21
2017-12-16T05:33:40.825Z,1.2
2017-12-16T05:34:40.258Z,1.18
2017-12-16T05:35:40.514Z,1.22
2017-12-16T05:36:40.496Z,1.2
2017-12-16T05:37:40.210Z,1.24
2017-12-16T05:38:40.737Z,1.18
2017-12-16T05:39:40.459Z,1.22
2017-12-16T05:40:40.707Z,1.15
2017-12-16T05:41:40.407Z,1.17
2017-12-16T05:42:40.121Z,1.21
2017-12-16T05:43:40.103Z,1.21
2017-12-16T05:44:40.386Z,1.15
2017-12-16T05:45:40.360Z,1.1
2017-12-16T05:46:40.606Z,1.1
2017-12-16T05:47:40.575Z,1.02
2017-12-16T05:48:40.018Z,0.93
2017-12-16T05:49:39.997Z,0.96
2017-12-16T05:50:40.525Z,0.96
2017-12-16T05:51:39.980Z,0.9
2017-12-16T05:52:39.946Z,0.96
2017-12-16T05:53:39.927Z,0.9
2017-12-16T05:54:39.908Z,0.86
2017-12-16T05:55:40.228Z,0.93
2017-12-16T05:56:40.146Z,0.93
2017-12-16T05:57:39.857Z,0.94
2017-12-16T05:58:39.843Z,0.96
2017-12-16T05:59:40.095Z,0.9
2017-12-16T06:00:40.076Z,0.97
2017-12-16T06:01:40.071Z,0.9
2017-12-16T06:02:40.047Z,0.94
2017-12-16T06:03:39.755Z,0.94
2017-12-16T06:04:39.757Z,0.92
2017-12-16T06:05:39.995Z,0.89
2017-12-16T06:06:39.969Z,0.86
2017-12-16T06:07:39.954Z,0.89
2017-12-16T06:08:39.977Z,0.92
2017-12-16T06:09:39.648Z,0.86
2017-12-16T06:10:39.628Z,0.93
2017-12-16T06:11:39.902Z,1.02
2017-12-16T06:12:39.596Z,0.94
2017-12-16T06:13:39.574Z,0.93
2017-12-16T06:14:39.829Z,0.97
2017-12-16T06:15:39.813Z,1.07
2017-12-16T06:16:39.530Z,0.97
2017-12-16T06:17:39.523Z,0.96
2017-12-16T06:18:39.757Z,1.03
2017-12-16T06:19:39.469Z,1.03
2017-12-16T06:20:39.453Z,1.02
2017-12-16T06:21:39.705Z,1
2017-12-16T06:22:39.690Z,1.07
2017-12-16T06:23:39.397Z,1.08
2017-12-16T06:24:39.383Z,1.07
2017-12-16T06:25:39.380Z,1.1
2017-12-16T06:26:39.628Z,1.1
2017-12-16T06:27:39.875Z,1.04
2017-12-16T06:28:39.310Z,1.07
2017-12-16T06:29:39.841Z,1.08
2017-12-16T06:30:39.820Z,1.04
2017-12-16T06:31:39.527Z,1.08
2017-12-16T06:32:39.560Z,1.08
2017-12-16T06:33:39.223Z,1.03
2017-12-16T06:34:39.489Z,1.08
2017-12-16T06:35:39.186Z,1.02
2017-12-16T06:36:39.170Z,1.07
2017-12-16T06:37:39.173Z,1.12
2017-12-16T06:38:39.407Z,1.07
2017-12-16T06:39:39.394Z,1.04
2017-12-16T06:40:39.098Z,1.04
2017-12-16T06:41:39.358Z,1.08
2017-12-16T06:42:39.064Z,1.08
2017-12-16T06:43:39.337Z,1.03
2017-12-16T06:44:39.302Z,1.1
2017-12-16T06:45:39.556Z,1.11
2017-12-16T06:46:38.992Z,1.11
2017-12-16T06:47:39.248Z,1.02
2017-12-16T06:48:39.232Z,1.11
2017-12-16T06:49:38.963Z,1.11
2017-12-16T06:50:38.926Z,1.12
2017-12-16T06:51:39.549Z,1.03
2017-12-16T06:52:38.886Z,1.03
2017-12-16T06:53:38.886Z,1.12
2017-12-16T06:54:38.911Z,1.1
2017-12-16T06:55:38.963Z,0.97
2017-12-16T06:56:39.106Z,1.08
2017-12-16T06:57:39.151Z,0.99
2017-12-16T06:58:39.062Z,1.1
2017-12-16T06:59:38.812Z,1.02
2017-12-16T07:00:38.748Z,1.07
2017-12-16T07:01:38.756Z,1.08
2017-12-16T07:02:39.040Z,1.08
2017-12-16T07:03:38.988Z,1.03
2017-12-16T07:04:38.685Z,1.03
2017-12-16T07:05:38.661Z,1.04
2017-12-16T07:06:38.938Z,1.1
2017-12-16T07:07:38.671Z,1.1
2017-12-16T07:08:38.631Z,1.07
2017-12-16T07:09:38.881Z,1.08
2017-12-16T07:10:38.849Z,1.11
2017-12-16T07:11:39.105Z,1.1
2017-12-16T07:12:38.539Z,1.04
2017-12-16T07:13:38.796Z,1.08
2017-12-16T07:14:38.789Z,1
2017-12-16T07:15:38.499Z,0.99
2017-12-16T07:16:39.020Z,1.15
2017-12-16T07:17:38.454Z,1.07
2017-12-16T07:18:38.438Z,1.12
2017-12-16T07:19:38.704Z,1.08
2017-12-16T07:20:38.674Z,1.08
2017-12-16T07:21:38.381Z,1.15
2017-12-16T07:22:38.660Z,1.12
2017-12-16T07:23:38.350Z,1.17
2017-12-16T07:24:38.601Z,1.1
2017-12-16T07:25:38.584Z,1.17
2017-12-16T07:26:38.297Z,1.08
2017-12-16T07:27:38.558Z,1.1
2017-12-16T07:28:38.527Z,1.07
2017-12-16T07:29:38.529Z,1.11
2017-12-16T07:30:38.501Z,1.07
2017-12-16T07:31:38.502Z,1.1
2017-12-16T07:32:38.464Z,1.14
2017-12-16T07:33:38.454Z,1.1
2017-12-16T07:34:38.448Z,1
2017-12-16T07:35:38.427Z,1.04
2017-12-16T07:36:38.394Z,1.08
2017-12-16T07:37:38.376Z,1.11
2017-12-16T07:38:38.371Z,1.15
2017-12-16T07:39:38.338Z,1.07
2017-12-16T07:40:38.051Z,1.11
2017-12-16T07:41:38.306Z,1.08
2017-12-16T07:42:38.022Z,1.15
2017-12-16T07:43:38.277Z,1.17
2017-12-16T07:44:38.010Z,1.15
2017-12-16T07:45:37.967Z,1.18
2017-12-16T07:46:37.947Z,1.18
2017-12-16T07:47:38.255Z,1.15
2017-12-16T07:48:37.921Z,1.14
2017-12-16T07:49:38.445Z,1.14
2017-12-16T07:50:38.149Z,1.11
2017-12-16T07:51:37.861Z,1.12
2017-12-16T07:52:38.113Z,1.2
2017-12-16T07:53:38.152Z,1.2
2017-12-16T07:54:38.084Z,1.12
2017-12-16T07:55:38.337Z,1.18
2017-12-16T07:56:38.054Z,1.15
2017-12-16T07:57:38.043Z,1.18
2017-12-16T07:58:37.737Z,1.18
2017-12-16T07:59:38.105Z,1.17
2017-12-16T08:00:37.710Z,1.18
2017-12-16T08:01:37.958Z,1.22
2017-12-16T08:02:37.671Z,1.21
2017-12-16T08:03:37.932Z,1.18
2017-12-16T08:04:37.662Z,1.18
2017-12-16T08:05:37.935Z,1.15
2017-12-16T08:06:37.924Z,1.21
2017-12-16T08:07:37.584Z,1.18
2017-12-16T08:08:37.845Z,1.18
2017-12-16T08:09:38.094Z,1.21
2017-12-16T08:10:37.563Z,1.21
2017-12-16T08:11:37.515Z,1.24
2017-12-16T08:12:37.767Z,1.24
2017-12-16T08:13:37.793Z,1.32
2017-12-16T08:14:37.462Z,1.21
2017-12-16T08:15:37.444Z,1.2
2017-12-16T08:16:37.970Z,1.3
2017-12-16T08:17:37.423Z,1.29
2017-12-16T08:18:37.665Z,1.26
2017-12-16T08:19:37.661Z,1.15
2017-12-16T08:20:37.644Z,1.32
2017-12-16T08:21:37.341Z,1.32
2017-12-16T08:22:37.319Z,1.29
2017-12-16T08:23:37.327Z,1.29
2017-12-16T08:24:37.564Z,1.38
2017-12-16T08:25:37.268Z,1.42
2017-12-16T08:26:37.801Z,1.36
2017-12-16T08:27:37.236Z,1.33
2017-12-16T08:28:37.515Z,1.33
2017-12-16T08:29:37.767Z,1.36
2017-12-16T08:30:37.729Z,1.4
2017-12-16T08:31:37.187Z,1.46
2017-12-16T08:32:37.437Z,1.38
2017-12-16T08:33:37.404Z,1.39
2017-12-16T08:34:37.387Z,1.42
2017-12-16T08:35:37.374Z,1.54
2017-12-16T08:36:37.625Z,1.51
2017-12-16T08:37:37.340Z,1.54
2017-12-16T08:38:37.317Z,1.48
2017-12-16T08:39:37.311Z,1.47
2017-12-16T08:40:37.282Z,1.54
2017-12-16T08:41:37.285Z,1.5
2017-12-16T08:42:36.977Z,1.5
2017-12-16T08:43:37.237Z,1.54
2017-12-16T08:44:37.249Z,1.57
2017-12-16T08:45:37.216Z,1.57
2017-12-16T08:46:37.177Z,1.53
2017-12-16T08:47:37.458Z,1.54
2017-12-16T08:48:36.889Z,1.48
2017-12-16T08:49:36.859Z,1.48
2017-12-16T08:50:37.115Z,1.53
2017-12-16T08:51:36.822Z,1.47
2017-12-16T08:52:37.102Z,1.5
2017-12-16T08:53:37.078Z,1.56
2017-12-16T08:54:36.793Z,1.48
2017-12-16T08:55:37.023Z,1.6
2017-12-16T08:56:36.738Z,1.56
2017-12-16T08:57:36.721Z,1.58
2017-12-16T08:58:36.704Z,1.57
2017-12-16T08:59:36.685Z,1.57
2017-12-16T09:00:36.958Z,1.54
2017-12-16T09:01:36.649Z,1.65
2017-12-16T09:02:36.907Z,1.71
2017-12-16T09:03:36.909Z,1.76
2017-12-16T09:04:37.148Z,1.78
2017-12-16T09:05:36.920Z,1.74
2017-12-16T09:06:36.570Z,1.72
2017-12-16T09:07:36.823Z,1.74
2017-12-16T09:08:37.078Z,1.74
2017-12-16T09:09:36.789Z,1.74
2017-12-16T09:10:37.050Z,1.75
2017-12-16T09:11:36.757Z,1.89
2017-12-16T09:12:36.753Z,1.87
2017-12-16T09:13:36.721Z,1.84
2017-12-16T09:14:36.705Z,1.83
2017-12-16T09:15:36.413Z,1.92
2017-12-16T09:16:36.398Z,1.84
2017-12-16T09:17:36.651Z,1.94
2017-12-16T09:18:36.926Z,1.94
2017-12-16T09:19:36.889Z,1.92
2017-12-16T09:20:36.600Z,1.9
2017-12-16T09:21:36.310Z,1.98
2017-12-16T09:22:36.568Z,1.98
2017-12-16T09:23:36.550Z,1.98
2017-12-16T09:24:36.262Z,2.05
2017-12-16T09:25:36.262Z,2.09
2017-12-16T09:26:36.502Z,2.08
2017-12-16T09:27:36.231Z,2.06
2017-12-16T09:28:36.215Z,2.18
2017-12-16T09:29:36.738Z,2.16
2017-12-16T09:30:36.453Z,2.2
2017-12-16T09:31:36.690Z,2.22
2017-12-16T09:32:36.398Z,2.22
2017-12-16T09:33:36.386Z,2.16
2017-12-16T09:34:36.404Z,2.18
2017-12-16T09:35:36.355Z,2.15
2017-12-16T09:36:36.342Z,2.24
2017-12-16T09:37:36.325Z,2.22
2017-12-16T09:38:36.040Z,2.16
2017-12-16T09:39:36.566Z,2.3
2017-12-16T09:40:35.996Z,2.31
2017-12-16T09:41:35.979Z,2.31
2017-12-16T09:42:35.964Z,2.31
2017-12-16T09:43:36.221Z,2.29
2017-12-16T09:44:35.929Z,2.45
2017-12-16T09:45:35.913Z,2.38
2017-12-16T09:46:36.453Z,2.38
2017-12-16T09:47:36.160Z,2.41
2017-12-16T09:48:35.863Z,2.49
2017-12-16T09:49:36.394Z,2.51
2017-12-16T09:50:35.829Z,2.51
2017-12-16T09:51:36.085Z,2.48
2017-12-16T09:52:36.074Z,2.48
2017-12-16T09:53:35.781Z,2.44
2017-12-16T09:54:36.037Z,2.3
2017-12-16T09:55:36.022Z,2.42
2017-12-16T09:56:36.010Z,2.27
2017-12-16T09:57:35.733Z,2.31
2017-12-16T09:58:35.702Z,2.31
2017-12-16T09:59:35.960Z,2.27
2017-12-16T10:00:35.668Z,2.24
2017-12-16T10:01:35.646Z,2.23
2017-12-16T10:02:35.907Z,2.18
2017-12-16T10:03:36.176Z,2.2
2017-12-16T10:04:35.605Z,2.18
2017-12-16T10:05:36.125Z,2.15
2017-12-16T10:06:35.590Z,2.18
2017-12-16T10:07:35.549Z,2.12
2017-12-16T10:08:35.802Z,2.15
2017-12-16T10:09:35.812Z,2.11
2017-12-16T10:10:35.510Z,2.09
2017-12-16T10:11:35.485Z,2.04
2017-12-16T10:12:35.742Z,1.98
2017-12-16T10:13:35.722Z,1.93
2017-12-16T10:14:35.434Z,1.93
2017-12-16T10:15:35.689Z,2.04
2017-12-16T10:16:35.676Z,2.06
2017-12-16T10:17:35.927Z,2.2
2017-12-16T10:18:35.662Z,2.06
2017-12-16T10:19:35.626Z,2.08
2017-12-16T10:20:35.611Z,2.08
2017-12-16T10:21:35.316Z,2.16
2017-12-16T10:22:35.572Z,2.16
2017-12-16T10:23:35.281Z,2.18
2017-12-16T10:24:35.288Z,2.04
2017-12-16T10:25:35.554Z,2.09
2017-12-16T10:26:35.501Z,2.04
2017-12-16T10:27:35.489Z,2.08
2017-12-16T10:28:35.471Z,2.11
2017-12-16T10:29:35.456Z,2.05
2017-12-16T10:30:35.446Z,2.05
2017-12-16T10:31:35.441Z,2.09
2017-12-16T10:32:35.428Z,2.12
2017-12-16T10:33:35.407Z,2.08
2017-12-16T10:34:35.380Z,2.09
2017-12-16T10:35:35.357Z,2.09
2017-12-16T10:36:35.613Z,2.01
2017-12-16T10:37:35.319Z,1.98
2017-12-16T10:38:35.029Z,2.11
2017-12-16T10:39:35.560Z,2.02
2017-12-16T10:40:34.997Z,1.94
2017-12-16T10:41:35.186Z,2.04
2017-12-16T10:42:35.231Z,2.02
2017-12-16T10:43:34.949Z,2.08
2017-12-16T10:44:35.222Z,2.01
2017-12-16T10:45:35.462Z,1.87
2017-12-16T10:46:35.174Z,1.86
2017-12-16T10:47:35.152Z,1.84
2017-12-16T10:48:35.137Z,1.86
2017-12-16T10:49:35.132Z,1.84
2017-12-16T10:50:34.827Z,1.72
2017-12-16T10:51:35.090Z,1.83
2017-12-16T10:52:34.801Z,1.83
2017-12-16T10:53:34.779Z,1.83
2017-12-16T10:54:35.306Z,1.87
2017-12-16T10:55:34.742Z,1.82
2017-12-16T10:56:35.005Z,1.97
2017-12-16T10:57:34.710Z,1.98
2017-12-16T10:58:34.964Z,2.01
2017-12-16T10:59:34.676Z,2.08
2017-12-16T11:00:34.659Z,2.08
2017-12-16T11:01:34.918Z,1.93
2017-12-16T11:02:34.898Z,1.98
2017-12-16T11:03:34.886Z,1.97
2017-12-16T11:04:34.869Z,1.97
2017-12-16T11:05:34.847Z,1.97
2017-12-16T11:06:35.132Z,2.05
2017-12-16T11:07:34.814Z,1.94
2017-12-16T11:08:34.796Z,1.94
2017-12-16T11:09:34.800Z,2.06
2017-12-16T11:10:34.769Z,1.94
2017-12-16T11:11:34.753Z,1.92
2017-12-16T11:12:34.729Z,1.92
2017-12-16T11:13:34.440Z,1.97
2017-12-16T11:14:34.703Z,1.92
2017-12-16T11:15:34.973Z,1.94
2017-12-16T11:16:34.671Z,1.84
2017-12-16T11:17:34.921Z,1.9
2017-12-16T11:18:34.895Z,1.97
2017-12-16T11:19:34.351Z,1.97
2017-12-16T11:20:34.593Z,1.97
2017-12-16T11:21:34.581Z,1.93
2017-12-16T11:22:34.581Z,1.94
2017-12-16T11:23:34.268Z,1.93
2017-12-16T11:24:34.524Z,1.89
2017-12-16T11:25:34.506Z,1.94
2017-12-16T11:26:34.233Z,1.97
2017-12-16T11:27:34.205Z,1.92
2017-12-16T11:28:34.737Z,1.92
2017-12-16T11:29:34.439Z,1.97
2017-12-16T11:30:34.155Z,1.86
2017-12-16T11:31:34.406Z,1.84
2017-12-16T11:32:34.389Z,1.82
2017-12-16T11:33:34.101Z,1.79
2017-12-16T11:34:34.380Z,1.83
2017-12-16T11:35:34.612Z,1.82
2017-12-16T11:36:34.323Z,1.78
2017-12-16T11:37:34.305Z,1.71
2017-12-16T11:38:34.029Z,1.66
2017-12-16T11:39:34.274Z,1.66
2017-12-16T11:40:33.997Z,1.74
2017-12-16T11:41:33.963Z,1.71
2017-12-16T11:42:33.945Z,1.68
2017-12-16T11:43:33.930Z,1.66
2017-12-16T11:44:33.911Z,1.69
2017-12-16T11:45:33.897Z,1.68
2017-12-16T11:46:34.148Z,1.75
2017-12-16T11:47:34.131Z,1.64
2017-12-16T11:48:34.117Z,1.74
2017-12-16T11:49:33.828Z,1.69
2017-12-16T11:50:34.107Z,1.76
2017-12-16T11:51:34.073Z,1.71
2017-12-16T11:52:34.320Z,1.71
2017-12-16T11:53:34.030Z,1.74
2017-12-16T11:54:34.015Z,1.74
2017-12-16T11:55:33.998Z,1.83
2017-12-16T11:56:34.002Z,1.87
2017-12-16T11:57:34.236Z,1.87
2017-12-16T11:58:33.674Z,1.86
2017-12-16T11:59:34.125Z,1.84
2017-12-16T12:00:33.944Z,1.87
2017-12-16T12:01:33.966Z,1.9
2017-12-16T12:02:34.153Z,1.98
2017-12-16T12:03:33.876Z,2.05
2017-12-16T12:04:33.586Z,2.01
2017-12-16T12:05:34.097Z,1.93
2017-12-16T12:06:33.847Z,1.92
2017-12-16T12:07:33.520Z,1.97
2017-12-16T12:08:33.503Z,1.97
2017-12-16T12:09:33.484Z,2.12
2017-12-16T12:10:33.469Z,2.05
2017-12-16T12:11:33.472Z,2.06
2017-12-16T12:12:33.712Z,2.13
2017-12-16T12:13:33.427Z,2.04
2017-12-16T12:14:33.690Z,2.09
2017-12-16T12:15:33.386Z,2.15
2017-12-16T12:16:33.367Z,2.15
2017-12-16T12:17:33.628Z,2.22
2017-12-16T12:18:33.888Z,2.13
2017-12-16T12:19:33.318Z,2.18
2017-12-16T12:20:33.592Z,2.33
2017-12-16T12:21:33.303Z,2.33
2017-12-16T12:22:33.601Z,2.31
2017-12-16T12:23:33.250Z,2.33
2017-12-16T12:24:33.513Z,2.3
2017-12-16T12:25:33.782Z,2.38
2017-12-16T12:26:33.217Z,2.33
2017-12-16T12:27:33.186Z,2.38
2017-12-16T12:28:33.719Z,2.31
2017-12-16T12:29:33.424Z,2.36
2017-12-16T12:30:33.134Z,2.36
2017-12-16T12:31:33.454Z,2.29
2017-12-16T12:32:33.713Z,2.3
2017-12-16T12:33:33.402Z,2.23
2017-12-16T12:34:33.071Z,2.27
2017-12-16T12:35:33.347Z,2.22
2017-12-16T12:36:33.313Z,2.29
2017-12-16T12:37:33.020Z,2.29
2017-12-16T12:38:33.029Z,2.36
2017-12-16T12:39:33.260Z,2.31
2017-12-16T12:40:33.250Z,2.33
2017-12-16T12:41:32.955Z,2.34
2017-12-16T12:42:33.226Z,2.4
2017-12-16T12:43:33.218Z,2.31
2017-12-16T12:44:33.198Z,2.48
2017-12-16T12:45:32.887Z,2.48
2017-12-16T12:46:33.438Z,2.48
2017-12-16T12:47:33.133Z,2.45
2017-12-16T12:48:33.134Z,2.31
2017-12-16T12:49:32.835Z,2.34
2017-12-16T12:50:33.037Z,2.38
2017-12-16T12:51:33.094Z,2.41
2017-12-16T12:52:32.791Z,2.45
2017-12-16T12:53:32.913Z,2.44
2017-12-16T12:54:32.738Z,2.34
2017-12-16T12:55:32.723Z,2.38
2017-12-16T12:56:32.999Z,2.31
2017-12-16T12:57:33.244Z,2.41
2017-12-16T12:58:32.675Z,2.44
2017-12-16T12:59:32.934Z,2.34
2017-12-16T13:00:32.898Z,2.38
2017-12-16T13:01:32.643Z,2.34
2017-12-16T13:02:33.162Z,2.29
2017-12-16T13:03:32.877Z,2.2
2017-12-16T13:04:32.894Z,2.2
2017-12-16T13:05:32.557Z,2.15
2017-12-16T13:06:32.540Z,2.16
2017-12-16T13:07:32.522Z,2.15
2017-12-16T13:08:32.779Z,2.16
2017-12-16T13:09:32.763Z,2.13
2017-12-16T13:10:32.475Z,2.12
2017-12-16T13:11:32.725Z,2.13
2017-12-16T13:12:32.797Z,2.09
2017-12-16T13:13:32.420Z,2.12
2017-12-16T13:14:32.417Z,2.04
2017-12-16T13:15:32.443Z,2.05
2017-12-16T13:16:32.916Z,2.06
2017-12-16T13:17:32.358Z,2.01
2017-12-16T13:18:32.614Z,1.9
2017-12-16T13:19:32.616Z,1.86
2017-12-16T13:20:32.855Z,1.87
2017-12-16T13:21:32.291Z,1.87
2017-12-16T13:22:32.565Z,1.84